createdAt,value
2022-09-12T00:04:49.415Z,17.18
2022-09-12T00:09:50.713Z,17.18
2022-09-12T00:14:52.093Z,17.17
2022-09-12T00:19:53.396Z,17.16
2022-09-12T00:24:54.718Z,17.14
2022-09-12T00:29:55.985Z,17.12
2022-09-12T00:34:57.282Z,17.06
2022-09-12T00:39:58.628Z,17.01
2022-09-12T00:44:59.947Z,16.96
2022-09-12T00:50:05.429Z,16.92
2022-09-12T00:55:10.552Z,16.87
2022-09-12T01:00:14.953Z,16.83
2022-09-12T01:05:16.835Z,16.84
2022-09-12T01:10:19.394Z,16.83
2022-09-12T01:15:20.714Z,16.83
2022-09-12T01:20:31.236Z,16.82
2022-09-12T01:25:45.084Z,16.83
2022-09-12T01:30:49.594Z,16.85
2022-09-12T01:35:56.733Z,16.85
2022-09-12T01:41:16.424Z,16.88
2022-09-12T01:46:35.006Z,16.88
2022-09-12T01:51:39.921Z,16.90
2022-09-12T01:56:42.881Z,16.93
2022-09-12T02:02:10.556Z,16.93
2022-09-12T02:07:19.008Z,16.92
2022-09-12T02:12:25.533Z,16.95
2022-09-12T02:17:26.961Z,16.96
2022-09-12T02:22:30.062Z,16.98
2022-09-12T02:27:37.825Z,17.00
2022-09-12T02:32:53.090Z,17.01
2022-09-12T02:38:06.279Z,16.97
2022-09-12T02:43:07.688Z,16.89
2022-09-12T02:48:13.507Z,16.83
2022-09-12T02:53:15.218Z,16.82
2022-09-12T02:58:18.175Z,16.80
2022-09-12T03:03:22.620Z,16.79
2022-09-12T03:09:02.529Z,16.77
2022-09-12T03:14:13.920Z,16.73
2022-09-12T03:19:32.225Z,16.73
2022-09-12T03:24:37.629Z,16.73
2022-09-12T03:29:40.139Z,16.74
2022-09-12T03:34:41.402Z,16.73
2022-09-12T03:39:42.728Z,16.71
2022-09-12T03:44:44.022Z,16.68
2022-09-12T03:49:46.570Z,16.69
2022-09-12T03:54:47.910Z,16.68
2022-09-12T03:59:50.067Z,16.71
2022-09-12T04:04:51.405Z,16.69
2022-09-12T04:09:53.325Z,16.69
2022-09-12T04:14:54.625Z,16.69
2022-09-12T04:19:55.893Z,16.70
2022-09-12T04:24:57.175Z,16.70
2022-09-12T04:29:59.445Z,16.72
2022-09-12T04:35:00.743Z,16.73
2022-09-12T04:40:02.191Z,16.74
2022-09-12T04:45:03.658Z,16.73
2022-09-12T04:50:06.893Z,16.72
2022-09-12T04:55:08.709Z,16.73
2022-09-12T05:00:14.395Z,16.73
2022-09-12T05:05:17.369Z,16.72
2022-09-12T05:10:18.889Z,16.72
2022-09-12T05:15:20.199Z,16.71
2022-09-12T05:20:21.526Z,16.71
2022-09-12T05:25:22.804Z,16.73
2022-09-12T05:30:24.163Z,16.71
2022-09-12T05:35:25.498Z,16.74
2022-09-12T05:40:26.861Z,16.74
2022-09-12T05:45:29.419Z,16.74
2022-09-12T05:50:30.762Z,16.79
2022-09-12T05:55:34.121Z,16.81
2022-09-12T06:00:35.455Z,16.87
2022-09-12T06:05:36.764Z,16.91
2022-09-12T06:10:38.492Z,16.98
2022-09-12T06:15:39.763Z,17.02
2022-09-12T06:20:41.107Z,17.06
2022-09-12T06:25:46.150Z,17.14
2022-09-12T06:30:48.729Z,17.20
2022-09-12T06:35:50.070Z,17.23
2022-09-12T06:40:51.466Z,17.30
2022-09-12T06:45:52.797Z,17.35
2022-09-12T06:51:04.890Z,17.43
2022-09-12T06:56:10.555Z,17.48
2022-09-12T07:01:15.200Z,17.54
2022-09-12T07:06:18.804Z,17.59
2022-09-12T07:11:21.479Z,17.63
2022-09-12T07:16:22.930Z,17.69
2022-09-12T07:21:24.284Z,17.74
2022-09-12T07:26:27.252Z,17.83
2022-09-12T07:31:28.915Z,17.87
2022-09-12T07:36:30.237Z,17.98
2022-09-12T07:41:33.832Z,18.09
2022-09-12T07:46:35.411Z,18.16
2022-09-12T07:51:37.299Z,18.21
2022-09-12T07:56:39.534Z,18.28
2022-09-12T08:01:41.494Z,18.31
2022-09-12T08:06:42.867Z,18.39
2022-09-12T08:11:44.303Z,18.52
2022-09-12T08:16:45.621Z,18.61
2022-09-12T08:21:46.902Z,18.65
2022-09-12T08:26:48.181Z,18.63
2022-09-12T08:31:51.929Z,18.78
2022-09-12T08:36:56.579Z,19.02
2022-09-12T08:42:05.097Z,18.99
2022-09-12T08:47:25.042Z,18.87
2022-09-12T08:52:26.560Z,18.99
2022-09-12T08:57:27.893Z,19.20
2022-09-12T09:02:38.312Z,19.29
2022-09-12T09:07:45.694Z,19.34
2022-09-12T09:12:54.275Z,19.52
2022-09-12T09:18:04.029Z,19.60
2022-09-12T09:23:05.384Z,19.70
2022-09-12T09:28:26.924Z,19.91
2022-09-12T09:33:32.903Z,20.00
2022-09-12T09:38:41.419Z,20.12
2022-09-12T09:43:42.717Z,20.13
2022-09-12T09:48:46.382Z,20.18
2022-09-12T09:54:10.830Z,20.30
2022-09-12T09:59:15.028Z,20.16
2022-09-12T10:04:18.093Z,19.96
2022-09-12T10:09:24.165Z,19.92
2022-09-12T10:14:37.626Z,20.03
2022-09-12T10:19:40.217Z,20.22
2022-09-12T10:24:43.494Z,20.47
2022-09-12T10:29:48.426Z,20.52
2022-09-12T10:34:53.482Z,20.53
2022-09-12T10:39:56.993Z,20.40
2022-09-12T10:44:58.343Z,20.43
2022-09-12T10:50:22.778Z,20.69
2022-09-12T10:55:29.493Z,20.97
2022-09-12T11:00:35.266Z,21.13
2022-09-12T11:05:51.352Z,21.16
2022-09-12T11:10:54.352Z,21.15
2022-09-12T11:15:55.671Z,21.14
2022-09-12T11:21:03.269Z,21.19
2022-09-12T11:26:04.602Z,21.21
2022-09-12T11:31:24.934Z,21.31
2022-09-12T11:36:32.822Z,21.38
2022-09-12T11:41:36.681Z,21.51
2022-09-12T11:46:39.338Z,21.67
2022-09-12T11:51:43.445Z,21.83
2022-09-12T11:56:46.204Z,21.98
2022-09-12T12:01:50.442Z,21.98
2022-09-12T12:07:09.306Z,21.87
2022-09-12T12:12:15.429Z,21.81
2022-09-12T12:17:21.218Z,21.92
2022-09-12T12:22:23.972Z,21.91
2022-09-12T12:27:45.487Z,21.80
2022-09-12T12:32:46.776Z,21.85
2022-09-12T12:37:52.712Z,21.89
2022-09-12T12:43:01.680Z,21.99
2022-09-12T12:48:11.093Z,22.07
2022-09-12T12:53:21.882Z,22.21
2022-09-12T12:58:23.131Z,22.37
2022-09-12T13:03:30.356Z,22.49
2022-09-12T13:08:32.762Z,22.44
2022-09-12T13:13:40.722Z,22.44
2022-09-12T13:18:45.401Z,22.53
2022-09-12T13:24:00.666Z,23.09
2022-09-12T13:29:10.924Z,23.74
2022-09-12T13:34:16.993Z,24.12
2022-09-12T13:39:24.333Z,24.20
2022-09-12T13:44:26.546Z,24.04
2022-09-12T13:49:32.087Z,23.88
2022-09-12T13:54:35.051Z,23.74
2022-09-12T13:59:40.030Z,23.62
2022-09-12T14:05:00.129Z,23.66
2022-09-12T14:10:01.915Z,23.60
2022-09-12T14:15:03.581Z,23.54
2022-09-12T14:20:11.312Z,23.31
2022-09-12T14:25:20.372Z,23.24
2022-09-12T14:30:32.738Z,23.12
2022-09-12T14:35:34.075Z,23.11
2022-09-12T14:40:41.147Z,23.08
2022-09-12T14:45:42.544Z,23.08
2022-09-12T14:50:43.821Z,23.11
2022-09-12T14:55:58.870Z,23.08
2022-09-12T15:01:06.243Z,23.00
2022-09-12T15:06:20.320Z,22.92
2022-09-12T15:11:21.784Z,22.89
2022-09-12T15:16:23.288Z,22.81
2022-09-12T15:21:24.668Z,22.71
2022-09-12T15:26:30.410Z,22.70
2022-09-12T15:31:32.016Z,22.70
2022-09-12T15:36:33.392Z,22.67
2022-09-12T15:41:36.829Z,22.62
2022-09-12T15:46:38.530Z,22.53
2022-09-12T15:51:40.172Z,22.45
2022-09-12T15:56:41.441Z,22.34
2022-09-12T16:01:42.851Z,22.25
2022-09-12T16:06:44.213Z,22.19
2022-09-12T16:11:46.066Z,22.12
2022-09-12T16:16:54.393Z,22.02
2022-09-12T16:21:55.764Z,21.94
2022-09-12T16:27:01.020Z,21.83
2022-09-12T16:32:02.810Z,21.75
2022-09-12T16:37:04.322Z,21.65
2022-09-12T16:42:05.674Z,21.57
2022-09-12T16:47:06.984Z,21.47
2022-09-12T16:52:08.343Z,21.38
2022-09-12T16:57:10.414Z,21.29
2022-09-12T17:02:12.485Z,21.19
2022-09-12T17:07:13.764Z,21.14
2022-09-12T17:12:15.048Z,21.07
2022-09-12T17:17:16.342Z,21.00
2022-09-12T17:22:17.672Z,20.90
2022-09-12T17:27:18.967Z,20.81
2022-09-12T17:32:20.240Z,20.75
2022-09-12T17:37:21.728Z,20.69
2022-09-12T17:42:24.244Z,20.62
2022-09-12T17:47:25.587Z,20.58
2022-09-12T17:52:27.494Z,20.51
2022-09-12T17:57:28.914Z,20.44
2022-09-12T18:02:33.082Z,20.36
2022-09-12T18:07:37.501Z,20.27
2022-09-12T18:12:41.171Z,20.20
2022-09-12T18:17:42.516Z,20.14
2022-09-12T18:22:44.040Z,20.08
2022-09-12T18:27:45.321Z,19.99
2022-09-12T18:32:47.221Z,19.93
2022-09-12T18:37:49.070Z,19.86
2022-09-12T18:42:51.328Z,19.78
2022-09-12T18:47:52.606Z,19.70
2022-09-12T18:52:57.839Z,19.62
2022-09-12T18:58:00.993Z,19.54
2022-09-12T19:03:02.263Z,19.46
2022-09-12T19:08:03.572Z,19.39
2022-09-12T19:13:04.929Z,19.33
2022-09-12T19:18:06.201Z,19.25
2022-09-12T19:23:07.484Z,19.17
2022-09-12T19:28:08.816Z,19.11
2022-09-12T19:33:10.114Z,19.08
2022-09-12T19:38:12.289Z,19.02
2022-09-12T19:43:13.667Z,18.95
2022-09-12T19:48:15.032Z,18.86
2022-09-12T19:53:16.705Z,18.80
2022-09-12T19:58:18.058Z,18.73
2022-09-12T20:03:19.333Z,18.67
2022-09-12T20:08:20.654Z,18.59
2022-09-12T20:13:21.933Z,18.53
2022-09-12T20:18:23.200Z,18.45
2022-09-12T20:23:24.486Z,18.39
2022-09-12T20:28:25.778Z,18.32
2022-09-12T20:33:27.106Z,18.26
2022-09-12T20:38:28.365Z,18.22
2022-09-12T20:43:29.709Z,18.15
2022-09-12T20:48:30.977Z,18.09
2022-09-12T20:53:35.049Z,18.05
2022-09-12T20:58:39.408Z,18.02
2022-09-12T21:03:45.159Z,17.97
2022-09-12T21:08:47.447Z,17.91
2022-09-12T21:13:48.839Z,17.86
2022-09-12T21:18:54.686Z,17.81
2022-09-12T21:23:59.634Z,17.76
2022-09-12T21:29:00.961Z,17.71
2022-09-12T21:34:02.261Z,17.63
2022-09-12T21:39:03.600Z,17.54
2022-09-12T21:44:04.952Z,17.48
2022-09-12T21:49:06.471Z,17.44
2022-09-12T21:54:07.749Z,17.39
2022-09-12T21:59:09.112Z,17.36
2022-09-12T22:04:10.569Z,17.34
2022-09-12T22:09:11.836Z,17.33
2022-09-12T22:14:13.142Z,17.32
2022-09-12T22:19:14.992Z,17.29
2022-09-12T22:24:28.423Z,17.26
2022-09-12T22:29:29.690Z,17.24
2022-09-12T22:34:31.018Z,17.23
2022-09-12T22:39:32.622Z,17.21
2022-09-12T22:44:34.053Z,17.20
2022-09-12T22:49:35.322Z,17.16
2022-09-12T22:54:37.625Z,17.13
2022-09-12T22:59:38.967Z,17.12
2022-09-12T23:04:40.343Z,17.09
2022-09-12T23:09:41.999Z,17.07
2022-09-12T23:14:43.327Z,17.05
2022-09-12T23:19:44.599Z,17.05
2022-09-12T23:24:45.916Z,17.03
2022-09-12T23:29:52.301Z,17.01
2022-09-12T23:34:53.650Z,16.98
2022-09-12T23:39:54.973Z,16.96
2022-09-12T23:44:56.585Z,16.95
2022-09-12T23:49:57.937Z,16.98
2022-09-12T23:54:59.259Z,17.02
